Time;durP1;ratioP1;P1;durP2;ratioP2;P2;SDS_P1;SDS_P2;PMS_P1;PMS_P2;Temp;Humidity;BMP_temperature;BMP_pressure;BME280_temperature;BME280_humidity;BME280_pressure;Samples;Min_cycle;Max_cycle;Signal;HPM_P1;HPM_P2
2023/04/17 00:02:04;;;;;;;0.65;0.65;;;;;;;9.28;100.00;101657.56;4910839;29;20235;-77
2023/04/17 00:04:32;;;;;;;0.10;0.10;;;;;;;9.28;100.00;101649.66;4913148;29;20278;-77
2023/04/17 00:07:02;;;;;;;0.10;0.10;;;;;;;9.29;100.00;101653.19;4912656;29;20235;-77
2023/04/17 00:09:30;;;;;;;0.10;0.10;;;9.20;99.90;;;9.29;100.00;101658.47;4911054;29;20288;-77
2023/04/17 00:11:57;;;;;;;0.20;0.20;;;;;;;9.25;100.00;101660.09;4913502;29;20314;-77
2023/04/17 00:14:25;;;;;;;0.10;0.10;;;;;;;9.24;100.00;101658.31;4925344;29;20242;-76
2023/04/17 00:16:52;;;;;;;0.32;0.32;;;;;;;9.23;100.00;101659.16;4914234;29;20231;-77
2023/04/17 00:19:20;;;;;;;0.32;0.32;;;;;;;9.23;100.00;101661.78;4911051;28;20329;-77
2023/04/17 00:21:47;;;;;;;0.10;0.10;;;;;;;9.21;100.00;101655.56;4914750;29;20296;-77
2023/04/17 00:24:15;;;;;;;0.13;0.13;;;;;;;9.19;100.00;101666.91;4910550;29;20266;-77
2023/04/17 00:26:42;;;;;;;0.10;0.10;;;;;;;9.18;100.00;101658.09;4912714;29;20342;-77
2023/04/17 00:29:09;;;;;;;0.15;0.15;;;;;;;9.17;100.00;101664.22;4909710;29;20242;-77
2023/04/17 00:31:37;;;;;;;0.10;0.10;;;;;;;9.17;100.00;101663.31;4913873;29;20226;-77
2023/04/17 00:34:04;;;;;;;0.10;0.10;;;;;;;9.14;100.00;101660.59;4914138;29;20242;-76
2023/04/17 00:36:32;;;;;;;0.30;0.30;;;;;;;9.12;100.00;101660.53;4910403;29;20306;-75
2023/04/17 00:39:00;;;;;;;0.17;0.17;;;;;;;9.13;100.00;101661.44;4906527;29;20684;-75
2023/04/17 00:41:27;;;;;;;0.15;0.15;;;;;;;9.12;100.00;101657.88;4911704;29;20345;-77
2023/04/17 00:43:55;;;;;;;0.10;0.10;;;;;;;9.10;100.00;101661.28;4907776;29;20246;-78
2023/04/17 00:46:22;;;;;;;0.10;0.10;;;;;;;9.10;100.00;101656.94;4913811;28;20353;-77
2023/04/17 00:48:50;;;;;;;0.10;0.10;;;;;;;9.10;100.00;101661.28;4913261;29;20259;-77
2023/04/17 00:51:17;;;;;;;0.10;0.10;;;;;;;9.08;100.00;101655.97;4910936;29;20303;-76
2023/04/17 00:53:45;;;;;;;0.10;0.10;;;9.00;99.90;;;9.07;100.00;101662.09;4912208;29;20313;-77
2023/04/17 00:56:13;;;;;;;0.10;0.10;;;;;;;9.08;100.00;101669.16;4909272;29;20235;-77
2023/04/17 00:58:40;;;;;;;0.75;0.73;;;;;;;9.06;100.00;101669.94;4914302;29;20238;-76
2023/04/17 01:01:07;;;;;;;0.10;0.10;;;9.10;99.90;;;9.05;100.00;101657.59;4897044;29;20423;-76
2023/04/17 01:03:35;;;;;;;0.35;0.35;;;;;;;9.04;100.00;101671.63;4913879;29;20243;-77
2023/04/17 01:06:03;;;;;;;0.10;0.10;;;;;;;9.04;100.00;101661.97;4907666;29;20239;-77
2023/04/17 01:08:41;;;;;;;0.22;0.22;;;9.00;99.90;;;9.04;100.00;101669.91;4912750;29;20633;-77
2023/04/17 01:11:09;;;;;;;0.10;0.10;;;8.90;99.90;;;9.02;100.00;101665.41;4911709;29;20239;-77
2023/04/17 01:13:47;;;;;;;0.20;0.20;;;8.90;99.90;;;9.00;100.00;101662.72;4910897;29;20299;-77
2023/04/17 01:16:15;;;;;;;0.35;0.35;;;;;;;8.96;100.00;101667.00;4916756;29;20248;-77
2023/04/17 01:18:43;;;;;;;0.10;0.10;;;;;;;8.98;100.00;101665.28;4914203;29;20239;-77
2023/04/17 01:21:10;;;;;;;0.10;0.10;;;;;;;8.93;100.00;101664.25;4910624;29;20294;-77
2023/04/17 01:23:47;;;;;;;0.10;0.10;;;8.80;99.90;;;8.93;100.00;101661.59;4912687;29;20350;-75
2023/04/17 01:26:33;;;;;;;0.10;0.10;;;8.80;99.90;;;8.92;100.00;101667.72;4913188;29;20262;-77
2023/04/17 01:29:00;;;;;;;0.38;0.38;;;;;;;8.92;100.00;101669.47;4903843;29;20238;-77
2023/04/17 01:31:28;;;;;;;0.10;0.10;;;;;;;8.91;100.00;101670.31;4912189;29;20246;-77
2023/04/17 01:33:55;;;;;;;0.20;0.20;;;;;;;8.89;100.00;101674.63;4910041;29;20258;-77
2023/04/17 01:36:23;;;;;;;0.20;0.20;;;;;;;8.88;100.00;101673.72;4910943;29;20246;-76
2023/04/17 01:38:50;;;;;;;0.15;0.15;;;;;;;8.88;100.00;101681.66;4913694;29;20310;-77
2023/04/17 01:41:17;;;;;;;0.10;0.10;;;8.70;99.90;;;8.87;100.00;101684.22;4909942;29;20259;-77
2023/04/17 01:43:46;;;;;;;0.65;0.65;;;8.80;99.90;;;8.86;100.00;101683.34;4912017;29;20254;-78
2023/04/17 01:46:13;;;;;;;0.10;0.10;;;;;;;8.87;100.00;101686.88;4906123;28;20235;-78
2023/04/17 01:48:41;;;;;;;0.10;0.10;;;;;;;8.86;100.00;101691.25;4906667;29;20541;-77
2023/04/17 01:51:08;;;;;;;0.40;0.40;;;;;;;8.84;100.00;101687.66;4912125;29;20298;-77
2023/04/17 01:53:36;;;;;;;0.40;0.40;;;8.80;99.90;;;8.85;100.00;101693.84;4911408;29;20334;-77
2023/04/17 01:56:04;;;;;;;0.20;0.20;;;;;;;8.84;100.00;101692.03;4910277;29;20226;-76
2023/04/17 01:58:31;;;;;;;0.68;0.68;;;;;;;8.84;100.00;101699.94;4911985;29;20319;-77
2023/04/17 02:00:59;;;;;;;0.20;0.20;;;;;;;8.84;100.00;101700.84;4912772;29;20231;-77
2023/04/17 02:03:26;;;;;;;0.10;0.10;;;;;;;8.83;100.00;101692.88;4910099;29;20258;-77
2023/04/17 02:05:54;;;;;;;0.10;0.10;;;;;;;8.85;100.00;101701.75;4910138;29;20253;-77
2023/04/17 02:08:22;;;;;;;0.40;0.40;;;;;;;8.85;100.00;101700.00;4912365;29;20239;-77
2023/04/17 02:10:49;;;;;;;0.10;0.10;;;;;;;8.84;100.00;101699.94;4911721;29;20290;-76
2023/04/17 02:13:17;;;;;;;0.10;0.10;;;;;;;8.83;100.00;101701.69;4913351;29;20600;-77
2023/04/17 02:15:44;;;;;;;0.15;0.15;;;8.70;99.90;;;8.83;100.00;101700.78;4912194;29;20318;-77
2023/04/17 02:18:11;;;;;;;0.15;0.15;;;;;;;8.82;100.00;101699.91;4911181;28;20734;-77
2023/04/17 02:20:39;;;;;;;0.10;0.10;;;;;;;8.82;100.00;101705.16;4910087;29;20238;-77
2023/04/17 02:23:06;;;;;;;0.10;0.10;;;;;;;8.81;100.00;101711.28;4913916;28;20295;-76
2023/04/17 02:25:34;;;;;;;0.30;0.30;;;;;;;8.81;100.00;101705.13;4914690;29;20243;-76
2023/04/17 02:28:01;;;;;;;0.10;0.10;;;;;;;8.81;100.00;101708.66;4913452;29;20326;-77
2023/04/17 02:30:29;;;;;;;0.20;0.20;;;;;;;8.82;100.00;101710.44;4910647;29;20235;-77
2023/04/17 02:32:57;;;;;;;0.10;0.10;;;;;;;8.82;100.00;101709.56;4909116;29;20254;-77
2023/04/17 02:35:28;;;;;;;0.10;0.10;;;8.70;99.90;;;8.83;100.00;101713.97;4908475;29;20245;-78
2023/04/17 02:37:56;;;;;;;0.52;0.52;;;;;;;8.81;100.00;101718.31;4913148;29;20239;-76
2023/04/17 02:40:23;;;;;;;0.30;0.30;;;;;;;8.82;100.00;101717.47;4912095;29;20278;-77
2023/04/17 02:42:51;;;;;;;0.63;0.63;;;;;;;8.82;100.00;101722.75;4910294;29;20250;-79
2023/04/17 02:45:18;;;;;;;0.10;0.10;;;;;;;8.83;100.00;101717.50;4916168;28;20249;-76
2023/04/17 02:47:46;;;;;;;0.10;0.10;;;;;;;8.82;100.00;101721.00;4913000;29;20772;-78
2023/04/17 02:50:14;;;;;;;0.20;0.20;;;;;;;8.83;100.00;101714.88;4913889;29;20313;-77
2023/04/17 02:52:41;;;;;;;0.75;0.75;;;;;;;8.82;100.00;101715.72;4912560;29;20258;-77
2023/04/17 02:55:09;;;;;;;0.10;0.10;;;;;;;8.83;100.00;101717.50;4909529;29;20282;-78
2023/04/17 02:57:36;;;;;;;0.50;0.50;;;;;;;8.82;100.00;101721.00;4911606;29;20262;-76
2023/04/17 03:00:07;;;;;;;0.15;0.15;;;8.70;99.90;;;8.82;100.00;101720.09;4914562;29;20258;-77
2023/04/17 03:02:34;;;;;;;0.10;0.10;;;;;;;8.83;100.00;101716.63;4915478;29;20252;-77
2023/04/17 03:05:03;;;;;;;0.10;0.10;;;;;;;8.83;100.00;101720.16;4916481;29;20299;-77
2023/04/17 03:07:30;;;;;;;0.15;0.15;;;;;;;8.83;100.00;101722.78;4915992;29;20234;-77
2023/04/17 03:09:58;;;;;;;0.10;0.10;;;;;;;8.84;100.00;101721.06;4916978;29;20283;-77
2023/04/17 03:12:25;;;;;;;0.10;0.10;;;;;;;8.83;100.00;101716.63;4919139;28;20238;-77
2023/04/17 03:14:52;;;;;;;0.15;0.15;;;;;;;8.83;100.00;101720.16;4930443;29;20270;-77
2023/04/17 03:17:20;;;;;;;0.10;0.10;;;;;;;8.84;100.00;101715.78;4914443;29;20717;-77
2023/04/17 03:19:47;;;;;;;0.20;0.20;;;;;;;8.84;100.00;101713.13;4915179;29;20238;-77
2023/04/17 03:22:15;;;;;;;0.20;0.20;;;;;;;8.84;100.00;101718.41;4920762;28;20269;-76
2023/04/17 03:24:42;;;;;;;0.10;0.10;;;;;;;8.85;100.00;101720.22;4915509;29;20355;-77
2023/04/17 03:27:10;;;;;;;0.10;0.10;;;;;;;8.85;100.00;101714.94;4911669;29;20375;-77
2023/04/17 03:29:37;;;;;;;0.10;0.10;;;;;;;8.84;100.00;101716.69;4912245;29;20377;-77
2023/04/17 03:32:04;;;;;;;0.10;0.10;;;8.70;99.90;;;8.81;100.00;101723.56;4914831;29;20290;-77
2023/04/17 03:34:32;;;;;;;0.10;0.10;;;;;;;8.82;100.00;101717.47;4909852;29;20354;-77
2023/04/17 03:36:59;;;;;;;0.50;0.50;;;;;;;8.81;100.00;101718.31;4914629;29;20238;-78
2023/04/17 03:39:27;;;;;;;1.25;1.05;;;;;;;8.80;100.00;101713.88;4918985;28;20270;-77
2023/04/17 03:41:55;;;;;;;0.45;0.45;;;;;;;8.81;100.00;101721.84;4915737;29;20239;-77
2023/04/17 03:44:22;;;;;;;0.10;0.10;;;;;;;8.80;100.00;101714.75;4908740;29;20267;-77
2023/04/17 03:46:50;;;;;;;0.20;0.20;;;;;;;8.77;100.00;101717.28;4910466;29;20306;-77
2023/04/17 03:49:17;;;;;;;0.13;0.13;;;;;;;8.77;100.00;101714.66;4912331;29;20672;-78
2023/04/17 03:51:44;;;;;;;0.20;0.20;;;;;;;8.80;100.00;101725.31;4914953;29;20341;-77
2023/04/17 03:54:12;;;;;;;0.65;0.63;;;;;;;8.81;100.00;101728.84;4914801;29;20241;-76
2023/04/17 03:56:39;;;;;;;0.40;0.40;;;;;;;8.80;100.00;101730.59;4914076;29;20326;-77
2023/04/17 03:59:07;;;;;;;0.30;0.30;;;;;;;8.81;100.00;101728.84;4914405;29;20242;-77
2023/04/17 04:01:37;;;;;;;0.22;0.22;;;;;;;8.82;100.00;101735.94;4914453;29;20262;-78
2023/04/17 04:04:04;;;;;;;2.47;0.65;;;;;;;8.82;100.00;101734.19;4914740;29;20239;-77
2023/04/17 04:06:32;;;;;;;0.32;0.32;;;;;;;8.82;100.00;101735.94;4914023;29;20235;-78
2023/04/17 04:08:59;;;;;;;0.35;0.35;;;;;;;8.82;100.00;101734.19;4897831;29;20735;-77
2023/04/17 04:11:27;;;;;;;0.10;0.10;;;;;;;8.81;100.00;101744.69;4912895;29;20444;-77
2023/04/17 04:13:54;;;;;;;0.30;0.30;;;;;;;8.83;100.00;101745.63;4915359;29;20258;-77
2023/04/17 04:16:21;;;;;;;0.10;0.10;;;;;;;8.83;100.00;101748.28;4912965;29;20302;-78
2023/04/17 04:18:49;;;;;;;0.65;0.65;;;;;;;8.82;100.00;101754.38;4914442;29;20235;-77
2023/04/17 04:21:16;;;;;;;0.17;0.17;;;;;;;8.83;100.00;101754.44;4915706;29;20294;-77
2023/04/17 04:23:44;;;;;;;0.60;0.60;;;;;;;8.83;100.00;101754.44;4915366;29;20267;-78
2023/04/17 04:26:11;;;;;;;0.10;0.10;;;;;;;8.84;100.00;101744.78;4914760;29;20231;-77
2023/04/17 04:28:39;;;;;;;0.10;0.10;;;;;;;8.84;100.00;101756.25;4915759;29;20294;-76
2023/04/17 04:31:06;;;;;;;0.40;0.40;;;;;;;8.84;100.00;101765.91;4912572;29;20735;-76
2023/04/17 04:33:34;;;;;;;0.28;0.28;;;;;;;8.85;100.00;101760.69;4898388;29;20235;-78
2023/04/17 04:36:01;;;;;;;0.30;0.30;;;8.70;99.90;;;8.85;100.00;101763.31;4915332;29;20239;-77
2023/04/17 04:38:30;;;;;;;0.50;0.50;;;;;;;8.88;100.00;101770.44;4914787;29;20255;-77
2023/04/17 04:41:04;;;;;;;0.20;0.20;;;8.80;99.90;;;8.84;100.00;101766.81;4907808;28;20274;-77
2023/04/17 04:43:33;;;;;;;0.10;0.10;;;;;;;8.86;100.00;101769.50;4914689;29;20246;-77
2023/04/17 04:46:00;;;;;;;1.58;1.48;;;;;;;8.86;100.00;101767.75;4915435;29;20303;-78
2023/04/17 04:48:27;;;;;;;0.28;0.28;;;;;;;8.87;100.00;101769.56;4912753;29;20243;-76
2023/04/17 04:50:55;;;;;;;0.17;0.17;;;8.70;99.90;;;8.90;100.00;101776.69;4914607;29;20262;-77
2023/04/17 04:53:23;;;;;;;0.32;0.32;;;;;;;8.91;100.00;101778.47;4911869;29;20302;-77
2023/04/17 04:55:50;;;;;;;0.10;0.10;;;;;;;8.90;100.00;101772.31;4914806;29;20263;-77
2023/04/17 04:58:18;;;;;;;0.65;0.65;;;;;;;8.92;100.00;101777.63;4914434;29;20250;-77
2023/04/17 05:00:45;;;;;;;0.10;0.10;;;;;;;8.89;100.00;101775.78;4914970;29;20235;-78
2023/04/17 05:03:13;;;;;;;0.10;0.10;;;;;;;8.89;100.00;101781.06;4913252;29;20238;-77
2023/04/17 05:05:42;;;;;;;0.30;0.30;;;8.90;99.90;;;8.88;100.00;101776.63;4899904;29;20263;-77
2023/04/17 05:08:09;;;;;;;0.10;0.10;;;;;;;8.89;100.00;101782.78;4915290;29;20259;-81
2023/04/17 05:10:36;;;;;;;0.10;0.10;;;;;;;8.91;100.00;101781.13;4912578;29;20297;-80
2023/04/17 05:13:04;;;;;;;0.40;0.40;;;;;;;8.91;100.00;101786.38;4920954;29;20254;-80
2023/04/17 05:15:31;;;;;;;0.63;0.30;;;;;;;8.92;100.00;101785.56;4917384;29;20239;-79
2023/04/17 05:17:59;;;;;;;0.10;0.10;;;;;;;8.91;100.00;101786.38;4916852;29;20707;-80
2023/04/17 05:20:26;;;;;;;0.17;0.17;;;;;;;8.94;100.00;101789.13;4916083;29;20330;-79
2023/04/17 05:22:54;;;;;;;0.10;0.10;;;;;;;8.96;100.00;101787.47;4916862;29;20278;-78
2023/04/17 05:25:22;;;;;;;0.10;0.10;;;;;;;8.97;100.00;101789.25;4916521;29;20305;-80
2023/04/17 05:27:49;;;;;;;0.10;0.10;;;;;;;8.96;100.00;101785.72;4910601;29;20239;-78
2023/04/17 05:30:17;;;;;;;0.10;0.10;;;;;;;8.99;100.00;101783.19;4913964;29;20326;-78
2023/04/17 05:32:44;;;;;;;0.10;0.10;;;;;;;9.01;100.00;101785.00;4913490;29;20263;-78
2023/04/17 05:35:12;;;;;;;0.10;0.10;;;;;;;9.02;100.00;101792.06;4912597;29;20235;-77
2023/04/17 05:37:39;;;;;;;0.10;0.10;;;;;;;9.02;100.00;101784.16;4909733;29;20263;-78
2023/04/17 05:40:07;;;;;;;0.20;0.20;;;8.90;99.90;;;9.03;100.00;101785.94;4909164;29;20239;-77
2023/04/17 05:42:35;;;;;;;0.10;0.10;;;;;;;9.05;100.00;101784.25;4908900;29;20240;-77
2023/04/17 05:45:03;;;;;;;0.15;0.15;;;;;;;9.05;100.00;101786.91;4916010;29;20235;-76
2023/04/17 05:47:31;;;;;;;0.10;0.10;;;;;;;9.08;100.00;101782.63;4913656;29;20239;-76
2023/04/17 05:49:58;;;;;;;0.35;0.35;;;;;;;9.08;100.00;101787.91;4909100;29;20249;-75
2023/04/17 05:52:26;;;;;;;0.10;0.10;;;;;;;9.11;100.00;101795.97;4909403;29;20342;-75
2023/04/17 05:54:53;;;;;;;0.57;0.52;;;;;;;9.14;100.00;101790.81;4910049;29;20274;-77
2023/04/17 05:57:20;;;;;;;0.32;0.32;;;;;;;9.15;100.00;101789.97;4909232;28;20268;-76
2023/04/17 05:59:48;;;;;;;0.10;0.10;;;;;;;9.13;100.00;101789.00;4902656;28;20346;-76
2023/04/17 06:02:16;;;;;;;0.20;0.20;;;;;;;9.15;100.00;101786.44;4899312;29;20247;-75
2023/04/17 06:04:43;;;;;;;0.30;0.30;;;;;;;9.15;100.00;101787.31;4910961;29;20234;-77
2023/04/17 06:07:11;;;;;;;0.68;0.68;;;;;;;9.18;100.00;101789.19;4908406;29;20249;-77
2023/04/17 06:09:39;;;;;;;0.45;0.45;;;;;;;9.19;100.00;101788.34;4909660;29;20258;-77
2023/04/17 06:12:14;;;;;;;0.70;0.70;;;;;;;9.19;100.00;101783.94;4910453;29;20271;-76
2023/04/17 06:14:42;;;;;;;0.52;0.45;;;;;;;9.17;100.00;101784.75;4906105;29;20246;-77
2023/04/17 06:17:11;;;;;;;0.10;0.10;;;;;;;9.21;100.00;101782.28;4909103;29;20242;-76
2023/04/17 06:19:38;;;;;;;0.13;0.13;;;;;;;9.24;100.00;101779.72;4902699;29;20241;-77
2023/04/17 06:22:06;;;;;;;0.10;0.10;;;;;;;9.24;100.00;101784.13;4906723;29;20270;-77
2023/04/17 06:24:33;;;;;;;0.10;0.10;;;;;;;9.27;100.00;101786.88;4908706;28;20286;-77
2023/04/17 06:27:02;;;;;;;0.10;0.10;;;;;;;9.27;100.00;101789.50;4910915;29;20238;-77
2023/04/17 06:29:30;;;;;;;0.10;0.10;;;;;;;9.24;100.00;101787.66;4904697;29;20247;-77
2023/04/17 06:31:57;;;;;;;0.30;0.30;;;;;;;9.26;100.00;101791.25;4906670;29;20318;-77
2023/04/17 06:34:24;;;;;;;0.13;0.13;;;;;;;9.31;100.00;101786.13;4913279;29;20239;-75
2023/04/17 06:36:52;;;;;;;0.10;0.10;;;;;;;9.33;100.00;101788.81;4911755;29;20238;-77
2023/04/17 06:39:20;;;;;;;0.10;0.10;;;9.20;99.90;;;9.39;100.00;101791.69;4911153;29;20267;-77
2023/04/17 06:41:49;;;;;;;0.52;0.52;;;;;;;9.41;100.00;101790.91;4912339;29;20257;-77
2023/04/17 06:44:17;;;;;;;0.10;0.10;;;;;;;9.47;100.00;101799.03;4914786;28;20246;-77
2023/04/17 06:46:44;;;;;;;0.43;0.43;;;;;;;9.52;100.00;101792.16;4913461;29;20338;-76
2023/04/17 06:49:12;;;;;;;0.13;0.13;;;;;;;9.47;100.00;101783.19;4892291;28;20230;-77
2023/04/17 06:51:40;;;;;;;0.15;0.15;;;;;;;9.61;100.00;101791.59;4919346;28;20239;-76
2023/04/17 06:54:08;;;;;;;0.15;0.15;;;9.50;99.90;;;9.59;100.00;101795.91;4911236;29;20610;-77
2023/04/17 06:56:36;;;;;;;0.28;0.28;;;;;;;9.73;100.00;101796.38;4913942;29;20235;-77
2023/04/17 06:59:03;;;;;;;0.73;0.73;;;;;;;9.72;100.00;101792.84;4916086;29;20269;-76
2023/04/17 07:01:31;;;;;;;0.00;0.00;;;;;;;9.84;100.00;101798.56;4915923;29;20242;-77
2023/04/17 07:03:58;;;;;;;0.15;0.15;;;;;;;9.85;100.00;101792.41;4913127;29;20264;-76
2023/04/17 07:06:27;;;;;;;0.25;0.25;;;9.90;99.90;;;10.04;100.00;101795.66;4911929;29;20325;-78
2023/04/17 07:08:55;;;;;;;0.80;0.80;;;;;;;10.06;100.00;101784.31;4914268;29;20291;-77
2023/04/17 07:11:22;;;;;;;0.80;0.80;;;;;;;10.30;100.00;101789.50;4915618;29;20318;-77
2023/04/17 07:13:50;;;;;;;0.52;0.52;;;;;;;10.37;100.00;101783.56;4910066;29;20294;-77
2023/04/17 07:16:17;;;;;;;0.10;0.10;;;10.50;99.90;;;10.77;100.00;101800.69;4907445;29;20246;-77
2023/04/17 07:18:44;;;;;;;0.70;0.32;;;;;;;10.85;100.00;101789.47;4907507;29;20238;-76
2023/04/17 07:21:12;;;;;;;0.40;0.40;;;;;;;11.17;100.00;101786.84;4911477;29;20278;-76
2023/04/17 07:23:39;;;;;;;0.10;0.10;;;;;;;11.28;100.00;101771.25;4914498;29;20258;-77
2023/04/17 07:26:07;;;;;;;0.10;0.10;;;;;;;11.64;100.00;101755.44;4915728;29;20238;-78
2023/04/17 07:28:37;;;;;;;0.65;0.65;;;11.50;99.90;;;11.72;100.00;101723.00;4906644;28;20255;-77
2023/04/17 07:31:08;;;;;;;0.90;0.50;;;11.40;99.90;;;11.59;100.00;101675.84;4918772;29;20227;-75
2023/04/17 07:33:36;;;;;;;0.10;0.10;;;11.70;99.90;;;11.83;100.00;101646.44;4920985;29;20305;-77
2023/04/17 07:36:10;;;;;;;0.08;0.08;;;11.80;99.90;;;12.05;100.00;101616.91;4913637;29;20321;-77
2023/04/17 07:38:37;;;;;;;0.22;0.22;;;;;;;12.12;100.00;101571.09;4923675;29;20234;-77
2023/04/17 07:41:07;;;;;;;0.50;0.50;;;;;;;12.08;100.00;101513.56;4914431;29;20232;-77
2023/04/17 07:43:35;;;;;;;0.63;0.63;;;;;;;12.16;100.00;101490.72;4919513;29;20243;-77
2023/04/17 07:46:02;;;;;;;0.25;0.25;;;;;;;12.28;100.00;101462.66;4925199;29;20234;-77
2023/04/17 07:48:30;;;;;;;0.17;0.17;;;11.90;99.90;;;11.97;100.00;101403.75;4917316;29;20323;-77
2023/04/17 07:51:01;;;;;;;0.15;0.15;;;11.90;99.90;;;11.95;100.00;101394.88;4913302;29;20247;-77
2023/04/17 07:53:28;;;;;;;0.43;0.43;;;;;;;11.92;100.00;101375.38;4911254;29;20242;-77
2023/04/17 07:55:57;;;;;;;1.95;0.43;;;;;;;11.79;100.00;101353.06;4880171;29;20700;-75
2023/04/17 07:58:25;;;;;;;0.30;0.30;;;12.00;99.90;;;12.16;100.00;101367.84;4906893;29;20321;-76
2023/04/17 08:00:53;;;;;;;1.05;0.70;;;;;;;12.16;100.00;101354.59;4903397;29;20258;-78
2023/04/17 08:03:22;;;;;;;0.47;0.47;;;;;;;11.93;100.00;101321.50;4911160;29;20239;-77
2023/04/17 08:05:50;;;;;;;0.57;0.57;;;;;;;12.17;100.00;101321.91;4911696;29;20238;-77
2023/04/17 08:08:18;;;;;;;0.10;0.10;;;;;;;12.22;100.00;101317.56;4914913;29;20283;-75
2023/04/17 08:10:45;;;;;;;0.50;0.50;;;12.10;99.90;;;12.14;100.00;101293.59;4914645;29;20231;-77
2023/04/17 08:13:13;;;;;;;0.63;0.63;;;;;;;12.37;100.00;101308.97;4915078;29;20281;-78
2023/04/17 08:15:40;;;;;;;0.95;0.95;;;;;;;12.22;100.00;101293.69;4910008;29;20234;-77
2023/04/17 08:18:09;;;;;;;0.10;0.10;;;12.20;99.90;;;12.34;100.00;101296.56;4906157;29;20255;-77
2023/04/17 08:20:37;;;;;;;0.57;0.57;;;;;;;12.07;100.00;101259.00;4911259;29;20270;-78
2023/04/17 08:23:04;;;;;;;0.10;0.10;;;;;;;12.18;100.00;101284.81;4911443;29;20362;-77
2023/04/17 08:25:32;;;;;;;0.38;0.38;;;;;;;12.00;100.00;101265.06;4910163;29;20250;-77
2023/04/17 08:27:59;;;;;;;0.52;0.52;;;;;;;12.40;100.00;101293.09;4914399;29;20243;-77
2023/04/17 08:30:26;;;;;;;0.10;0.10;;;12.20;99.90;;;12.37;100.00;101293.06;4914588;29;20281;-77
2023/04/17 08:32:56;;;;;;;0.17;0.17;;;;;;;12.36;100.00;101270.03;4911361;29;20271;-76
2023/04/17 08:35:25;;;;;;;0.30;0.30;;;;;;;12.62;100.00;101273.06;4912120;29;20243;-79
2023/04/17 08:37:54;;;;;;;0.85;0.45;;;12.40;99.90;;;12.50;100.00;101245.50;4913264;29;20230;-78
2023/04/17 08:40:23;;;;;;;0.10;0.10;;;12.50;99.90;;;12.56;100.00;101231.44;4911618;29;20243;-78
2023/04/17 08:42:52;;;;;;;0.25;0.25;;;12.50;99.90;;;12.69;100.00;101235.13;4912301;29;20227;-78
2023/04/17 08:45:23;;;;;;;0.00;0.00;;;12.70;99.90;;;12.85;100.00;101229.16;4903751;29;20305;-77
2023/04/17 08:47:50;;;;;;;0.25;0.25;;;;;;;12.95;100.00;101214.22;4911642;29;20234;-77
2023/04/17 08:50:20;;;;;;;2.92;0.73;;;12.80;99.90;;;12.86;100.00;101207.03;4905648;29;20231;-77
2023/04/17 08:52:50;;;;;;;0.63;0.63;;;12.80;99.90;;;12.83;100.00;101196.38;4894365;29;20235;-78
2023/04/17 08:55:24;;;;;;;0.20;0.20;;;12.90;99.90;;;13.13;100.00;101204.72;4913797;29;20333;-79
2023/04/17 08:58:05;;;;;;;0.00;0.00;;;13.00;99.90;;;12.99;100.00;101176.22;4894279;29;20230;-78
2023/04/17 09:00:35;;;;;;;0.08;0.08;;;13.20;99.90;;;13.38;100.00;101189.06;4907059;29;20251;-78
2023/04/17 09:03:06;;;;;;;0.10;0.10;;;13.30;99.90;;;13.44;100.00;101184.72;4905918;29;20344;-78
2023/04/17 09:05:37;;;;;;;0.00;0.00;;;;;;;13.34;100.00;101136.78;4904754;29;20239;-78
2023/04/17 09:08:20;;;;;;;0.10;0.10;;;13.40;99.90;;;13.66;100.00;101150.34;4903595;29;20246;-78
2023/04/17 09:10:50;;;;;;;0.20;0.20;;;13.50;99.90;;;13.75;100.00;101139.78;4916587;29;20259;-78
2023/04/17 09:13:20;;;;;;;0.75;0.47;;;13.60;99.90;;;13.67;100.00;101106.94;4920220;29;20230;-78
2023/04/17 09:16:05;;;;;;;0.10;0.10;;;13.50;99.90;;;13.61;100.00;101088.28;4912630;29;20245;-78
2023/04/17 09:18:34;;;;;;;0.10;0.10;;;13.60;99.90;;;13.77;100.00;101099.03;4912702;29;20231;-78
2023/04/17 09:21:04;;;;;;;0.73;0.73;;;13.80;99.90;;;13.78;100.00;101076.88;4914052;29;20236;-78
2023/04/17 09:23:55;;;;;;;0.82;0.82;;;13.70;99.90;;;13.78;100.00;101065.38;4915712;29;20239;-78
2023/04/17 09:26:26;;;;;;;0.25;0.25;;;13.70;99.90;;;13.90;100.00;101064.53;4916624;29;20239;-78
2023/04/17 09:29:09;;;;;;;0.10;0.10;;;13.90;99.90;;;13.77;100.00;101031.69;4913856;29;20293;-77
2023/04/17 09:31:41;;;;;;;0.10;0.10;;;13.80;99.90;;;14.02;100.00;101043.34;4920660;29;20269;-77
2023/04/17 09:34:12;;;;;;;0.65;0.65;;;14.10;99.90;;;14.40;100.00;101043.50;4919716;29;20317;-79
2023/04/17 09:36:42;;;;;;;0.10;0.10;;;14.20;99.90;;;14.31;100.00;100999.16;4913840;29;20292;-78
2023/04/17 09:39:23;;;;;;;0.10;0.10;;;14.20;99.90;;;14.30;100.00;100975.16;4914225;29;20235;-78
2023/04/17 09:42:02;;;;;;;0.10;0.10;;;13.90;99.90;;;13.90;100.00;100928.94;4916478;29;20230;-80
2023/04/17 09:44:30;;;;;;;0.20;0.20;;;;;;;13.91;100.00;100925.41;4914688;29;20294;-80
2023/04/17 09:46:59;;;;;;;0.00;0.00;;;;;;;14.31;100.00;100969.88;4915558;28;20238;-80
2023/04/17 09:49:48;;;;;;;0.17;0.17;;;14.10;99.90;;;14.04;100.00;100921.91;4910933;29;20242;-79
2023/04/17 09:52:16;;;;;;;0.93;0.88;;;;;;;14.26;100.00;100952.97;4909279;29;20242;-79
2023/04/17 09:54:46;;;;;;;0.05;0.05;;;14.00;99.90;;;13.97;100.00;100915.66;4911487;29;20231;-78
2023/04/17 09:57:13;;;;;;;0.20;0.20;;;;;;;13.93;100.00;100915.66;4909557;29;20298;-80
2023/04/17 09:59:44;;;;;;;0.10;0.10;;;13.90;99.90;;;13.97;100.00;100913.00;4913526;29;20302;-80
2023/04/17 10:02:17;;;;;;;0.25;0.25;;;13.60;99.90;;;13.93;100.00;100905.03;4922368;29;20255;-80
2023/04/17 10:04:46;;;;;;;0.60;0.60;;;13.70;99.90;;;13.59;100.00;100886.31;4918961;29;20655;-79
2023/04/17 10:07:15;;;;;;;0.10;0.10;;;;;;;13.61;100.00;100889.84;4907632;29;20296;-79
2023/04/17 10:09:45;;;;;;;0.00;0.00;;;;;;;13.45;100.00;100870.31;4916354;29;20242;-79
2023/04/17 10:12:18;;;;;;;0.00;0.00;;;13.40;99.90;;;13.39;100.00;100866.75;4920290;29;20239;-79
2023/04/17 10:14:49;;;;;;;0.10;0.10;;;13.30;99.90;;;13.42;100.00;100874.72;4934964;28;20290;-79
2023/04/17 10:17:30;;;;;;;0.20;0.20;;;13.20;99.90;;;13.30;100.00;100862.28;4916990;29;20231;-80
2023/04/17 10:20:22;;;;;;;0.10;0.10;;;13.10;99.90;;;13.24;100.00;100858.69;4898262;29;20244;-78
2023/04/17 10:22:55;;;;;;;0.10;0.10;;;13.20;99.90;;;13.15;100.00;100864.81;4913009;29;20317;-81
2023/04/17 10:25:29;;;;;;;0.00;0.00;;;13.10;99.90;;;13.03;100.00;100876.25;4910772;29;20239;-80
2023/04/17 10:27:59;;;;;;;0.10;0.10;;;13.20;99.90;;;13.34;100.00;100898.59;4912963;29;20230;-79
2023/04/17 10:30:57;;;;;;;0.10;0.10;;;13.20;99.90;;;13.29;100.00;100904.75;4908410;29;20267;-78
2023/04/17 10:33:26;;;;;;;0.30;0.30;;;13.10;99.90;;;13.04;100.00;100871.84;4910007;29;20257;-78
2023/04/17 10:35:54;;;;;;;0.10;0.10;;;;;;;13.11;100.00;100898.44;4915879;29;20231;-77
2023/04/17 10:38:33;;;;;;;0.10;0.10;;;13.00;99.90;;;12.85;100.00;100860.19;4915878;29;20257;-78
2023/04/17 10:41:03;;;;;;;0.10;0.10;;;12.80;99.90;;;12.93;100.00;100874.38;4915919;29;20237;-77
2023/04/17 10:43:31;;;;;;;0.10;0.10;;;;;;;12.94;100.00;100896.50;4913538;29;20231;-78
2023/04/17 10:46:12;;;;;;;0.60;0.60;;;12.80;99.90;;;12.82;100.00;100890.25;4917413;29;20326;-80
2023/04/17 10:48:51;;;;;;;20.38;0.65;;;12.90;99.90;;;13.01;100.00;100915.19;4916706;29;20231;-79
2023/04/17 10:51:27;;;;;;;0.40;0.38;;;13.00;99.90;;;13.10;100.00;100919.66;4913796;29;20235;-80
2023/04/17 10:54:00;;;;;;;0.35;0.30;;;13.10;99.90;;;13.13;100.00;100925.00;4940184;23;20295;-85
2023/04/17 10:56:48;;;;;;;0.00;0.00;;;13.10;99.90;;;13.36;100.00;100944.66;4912261;29;20314;-79
2023/04/17 10:59:17;;;;;;;0.00;0.00;;;13.20;99.90;;;13.28;100.00;100932.19;4911840;29;20294;-80
2023/04/17 11:01:47;;;;;;;0.43;0.43;;;13.30;99.90;;;13.24;100.00;100906.50;4897836;29;20276;-82
2023/04/17 11:04:32;;;;;;;0.10;0.10;;;13.30;99.90;;;13.38;100.00;100915.44;4900355;29;20270;-81
2023/04/17 11:07:01;;;;;;;0.03;0.03;;;;;;;13.59;100.00;100936.78;4905265;29;20295;-80
2023/04/17 11:09:28;;;;;;;0.20;0.20;;;;;;;13.54;100.00;100916.41;4887275;29;20315;-79